x

Halifax Harbour (44258) Wave Buoy

3:00am - Fri 29th Jul 2016 All times are EDT. -4 hours from GMT.

  • Sig Wave height 1.6ft
  • Peak Period 8s
  • Wind
    7mph, 9mph gusts
  • Sea Temp 63°f
  • Air Temp 62°f
  • Sea Pressure 1013.6mb
  • Halifax Harbour
  • Halifax Harbour

More Historic Weather Station data

Upgrade to MSW Pro to gain access to the past 30 days of data for over 8000 Wavebouys and Weather Stations around the globe.

Join Pro

Comparision Forecast

View Surf forecast
   
Fri 07/29 3:00am 1.6ft 8s 7 9 mph 1013.6mb 63f 62f
2:00am 2ft 7s 7 9 mph 1014mb 63f 63f
1:00am 2ft 8s 9 11 mph 1014.4mb 63f 63f
12:00am 2ft 7s 9 11 mph 1014.3mb 63f 63f
Thu 07/28 11:00pm 2ft 8s 11 13 mph 1014.7mb 63f 63f
10:00pm 2ft 7s 9
mph
1014.9mb 63f 63f
9:00pm 2ft 7s 9
mph
1014.9mb 63f 63f
8:00pm 2ft 8s 11 13 mph 1014.3mb 63f 63f
7:00pm 2ft 6s 13 16 mph 1013.9mb 64f 63f
6:00pm 2ft 6s 11 13 mph 1013.3mb 64f 65f
5:00pm 1.6ft 7s 13 16 mph 1013.3mb 64f 65f
4:00pm 1.6ft 6s 11 13 mph 1013.5mb 64f 65f
3:00pm 1.6ft 7s 11
mph
1013.8mb 64f 65f
2:00pm 1.6ft 7s 9 11 mph 1014.1mb 64f 65f
1:00pm 1.6ft 7s 9 11 mph 1014.1mb 64f 65f
12:00pm 2ft 7s 7 9 mph 1014.3mb 64f 64f
11:00am 2ft 7s 7 9 mph 1014.2mb 63f 64f
10:00am 2ft 8s 4 7 mph 1014.3mb 63f 63f
9:00am 2ft 8s 4
mph
1014.2mb 63f 62f
8:00am 2ft 8s 2 4 mph 1014.4mb 62f 61f
7:00am 2ft 7s 2
mph
1013.9mb 62f 61f
6:00am 2.5ft 7s 2
mph
1013.7mb 62f 61f
5:00am 2ft 6s 2 4 mph 1013.5mb 62f 62f
4:00am 2ft 7s 7 9 mph 1012.8mb 61f 62f
3:00am 2.5ft 7s 7 9 mph 1012.8mb 61f 62f
2:00am 2.5ft 7s 2 4 mph 1013.3mb 61f 62f
1:00am 2.5ft 6s 2 4 mph 1012.8mb 61f 61f
12:00am 2.5ft 7s 4
mph
1012.6mb 61f 61f
Wed 07/27 11:00pm 2.5ft 7s 4
mph
1012.5mb 61f 61f
10:00pm 2ft 7s 4
mph
1012.6mb 61f 61f
9:00pm 2ft 7s 7
mph
1012.7mb 61f 61f
8:00pm 1.6ft 6s 7 9 mph 1012.5mb 61f 62f
7:00pm 1.6ft 6s 9
mph
1012.2mb 61f 62f
6:00pm 1.3ft 6s 9
mph
1011.9mb 61f 61f
5:00pm 1.6ft 6s 9
mph
1011.8mb 60f 61f
4:00pm 1.3ft 6s 9
mph
1011.7mb 60f 61f
3:00pm 1.3ft 6s 13
mph
1011.5mb 60f 62f
2:00pm 1.3ft 5s 11 13 mph 1011.7mb 60f 61f
1:00pm 1.6ft 4s 9 11 mph 1011.5mb 59f 61f
12:00pm 1.6ft 5s 9
mph
1011.7mb 59f 61f
11:00am 1.6ft 4s 7
mph
1011.8mb 59f 60f
10:00am 1.6ft 5s 7
mph
1011.8mb 58f 60f
9:00am 1.6ft 5s 4 7 mph 1011.6mb 58f 60f
8:00am 2ft 5s 4
mph
1011.4mb 58f 59f
7:00am 1.6ft 4s 4
mph
1011.3mb 57f 59f
6:00am 1.6ft 5s 2 4 mph 1010.8mb 57f 59f
5:00am 1.6ft 5s 2
mph
1010mb 57f 60f
4:00am 2ft 5s 2
mph
1009.4mb 57f 60f
3:00am 2ft 5s 4
mph
1009.4mb 58f 59f
2:00am 2ft 6s 2
mph
1009.1mb 58f 60f
1:00am 2ft 6s 4
mph
1009mb 58f 60f
12:00am 2ft 5s 2 4 mph 1008.9mb 58f 60f
Tue 07/26 11:00pm 2ft 5s 4 7 mph 1008.5mb 58f 60f
10:00pm 2.5ft 5s 2 4 mph 1008.5mb 58f 61f
9:00pm 2.5ft 5s 4
mph
1008.6mb 58f 61f
8:00pm 2.5ft 6s 4
mph
1008mb 58f 60f
7:00pm 3.5ft 5s 4 7 mph 1007.8mb 58f 60f
6:00pm 3.5ft 5s 9 11 mph 1007.5mb 58f 62f
5:00pm 3.5ft 4s 7 9 mph 1007.4mb 59f 62f
4:00pm 2.5ft 4s 7 9 mph 1007.5mb 59f 63f
3:00pm 2.5ft 7s 9 13 mph 1007.4mb 60f 64f
2:00pm 2.5ft 7s 9
mph
1007.7mb 60f 63f
1:00pm 2.5ft 7s 13 16 mph 1007.6mb 60f 63f
12:00pm 2.5ft 4s 11 13 mph 1008.1mb 60f 63f
11:00am 2.5ft 7s 13 16 mph 1008.4mb 59f 63f
10:00am 2.5ft 7s 13 16 mph 1008.5mb 60f 63f
9:00am 2.5ft 7s 7 9 mph 1009.7mb 60f 63f
8:00am 2.5ft 7s 9 13 mph 1009.5mb 60f 63f
7:00am 2ft 7s 7 9 mph 1010.1mb 60f 61f
6:00am 2ft 7s 4 7 mph 1010.1mb 60f 61f
5:00am 2.5ft 6s 7 9 mph 1010.2mb 60f 61f
4:00am 2.5ft 7s 7 9 mph 1010.3mb 60f 61f
3:00am 2.5ft 7s 11 13 mph 1010.4mb 60f 62f
2:00am 2.5ft 7s 9 11 mph 1010.7mb 61f 63f
1:00am 2.5ft 7s 9 11 mph 1010.5mb 61f 63f
12:00am 2.5ft 7s 9 11 mph 1010.9mb 61f 63f
Mon 07/25 11:00pm 2.5ft 7s 9 11 mph 1011.3mb 61f 63f
10:00pm 2.5ft 8s 9
mph
1011.4mb 61f 63f
9:00pm 2.5ft 7s 7
mph
1012mb 61f 63f
8:00pm 2.5ft 7s 4 7 mph 1012mb 61f 64f
7:00pm 2.5ft 7s 7 9 mph 1011.8mb 62f 64f
6:00pm 3ft 7s 9
mph
1012.1mb 63f 64f
5:00pm 2.5ft 8s 7
mph
1012.1mb 63f 65f
4:00pm 3ft 7s 7 9 mph 1012.4mb 62f 65f
3:00pm 3ft 7s 11 13 mph 1012mb 62f 65f
2:00pm 3ft 7s 9 11 mph 1012.8mb 64f 65f
1:00pm 3ft 7s 9
mph
1013.3mb 64f 66f
12:00pm 2.5ft 8s 4
mph
1013.5mb 64f 65f
11:00am 3ft 7s 4 7 mph 1013.7mb 64f 64f
10:00am 3.5ft 8s 4 7 mph 1014mb 63f 64f
9:00am 3ft 8s 2
mph
1013.7mb 61f 63f